createdAt,value
2017-11-27T00:01:52.415Z,98909.28
2017-11-27T00:04:20.661Z,98917.18
2017-11-27T00:06:49.686Z,98916.44
2017-11-27T00:09:17.927Z,98911.86
2017-11-27T00:11:46.948Z,98909.12
2017-11-27T00:14:15.205Z,98906.05
2017-11-27T00:16:44.220Z,98905.95
2017-11-27T00:19:12.457Z,98911.92
2017-11-27T00:21:40.703Z,98912.34
2017-11-27T00:24:08.957Z,98910.66
2017-11-27T00:26:37.224Z,98914.19
2017-11-27T00:29:05.474Z,98918.47
2017-11-27T00:31:34.501Z,98916.84
2017-11-27T00:34:02.747Z,98914.16
2017-11-27T00:36:31.017Z,98911.08
2017-11-27T00:39:00.028Z,98919.17
2017-11-27T00:41:28.292Z,98923.08
2017-11-27T00:43:56.545Z,98919.47
2017-11-27T00:46:24.788Z,98919.36
2017-11-27T00:48:53.040Z,98920.34
2017-11-27T00:51:21.292Z,98921.63
2017-11-27T00:53:49.545Z,98920.03
2017-11-27T00:56:36.314Z,98916.58
2017-11-27T00:59:04.563Z,98920.22
2017-11-27T01:01:32.820Z,98923.48
2017-11-27T01:04:01.838Z,98927.26
2017-11-27T01:06:30.092Z,98922.22
2017-11-27T01:08:59.118Z,98925.97
2017-11-27T01:11:27.372Z,98930.09
2017-11-27T01:13:55.608Z,98929.96
2017-11-27T01:16:23.867Z,98929.13
2017-11-27T01:18:52.110Z,98937.98
2017-11-27T01:21:20.416Z,98932.94
2017-11-27T01:23:48.640Z,98932.42
2017-11-27T01:26:17.649Z,98933.28
2017-11-27T01:28:45.897Z,98942.94
2017-11-27T01:31:14.910Z,98946.72
2017-11-27T01:33:43.161Z,98941.47
2017-11-27T01:36:12.173Z,98948.11
2017-11-27T01:38:40.429Z,98942.36
2017-11-27T01:41:09.448Z,98944.58
2017-11-27T01:43:37.715Z,98947.34
2017-11-27T01:46:05.976Z,98945.95
2017-11-27T01:48:34.991Z,98941.90
2017-11-27T01:51:03.251Z,98938.98
2017-11-27T01:53:32.271Z,98939.71
2017-11-27T01:56:00.525Z,98945.25
2017-11-27T01:58:29.536Z,98948.06
2017-11-27T02:00:57.792Z,98943.80
2017-11-27T02:03:26.808Z,98937.31
2017-11-27T02:05:55.069Z,98932.27
2017-11-27T02:08:23.321Z,98932.42
2017-11-27T02:10:52.350Z,98929.07
2017-11-27T02:13:20.594Z,98929.32
2017-11-27T02:15:49.627Z,98933.47
2017-11-27T02:18:17.879Z,98935.56
2017-11-27T02:20:46.137Z,98929.35
2017-11-27T02:23:14.377Z,98931.35
2017-11-27T02:25:42.641Z,98932.30
2017-11-27T02:28:10.888Z,98933.27
2017-11-27T02:30:39.168Z,98933.91
2017-11-27T02:33:07.421Z,98933.94
2017-11-27T02:35:36.446Z,98937.72
2017-11-27T02:38:04.700Z,98930.25
2017-11-27T02:40:32.945Z,98944.67
2017-11-27T02:43:01.196Z,98938.73
2017-11-27T02:45:29.452Z,98942.31
2017-11-27T02:47:57.702Z,98948.48
2017-11-27T02:50:25.950Z,98955.13
2017-11-27T02:52:54.199Z,98949.69
2017-11-27T02:55:22.455Z,98951.04
2017-11-27T02:57:50.704Z,98947.96
2017-11-27T03:00:19.710Z,98939.94
2017-11-27T03:02:47.962Z,98947.94
2017-11-27T03:05:16.984Z,98946.34
2017-11-27T03:07:45.241Z,98948.44
2017-11-27T03:10:14.265Z,98937.70
2017-11-27T03:12:42.516Z,98941.20
2017-11-27T03:15:10.768Z,98941.89
2017-11-27T03:17:39.785Z,98942.41
2017-11-27T03:20:08.044Z,98941.91
2017-11-27T03:22:37.169Z,98942.06
2017-11-27T03:25:05.412Z,98946.68
2017-11-27T03:27:34.430Z,98942.53
2017-11-27T03:30:02.698Z,98935.39
2017-11-27T03:34:59.253Z,98934.77
2017-11-27T03:37:27.501Z,98926.13
2017-11-27T03:39:56.524Z,98931.91
2017-11-27T03:42:24.771Z,98923.48
2017-11-27T03:44:53.788Z,98927.14
2017-11-27T03:47:22.030Z,98921.88
2017-11-27T03:49:50.286Z,98918.83
2017-11-27T03:52:18.540Z,98926.37
2017-11-27T03:54:46.802Z,98907.76
2017-11-27T03:57:15.037Z,98908.95
2017-11-27T03:59:44.060Z,98904.06
2017-11-27T04:02:12.314Z,98898.09
2017-11-27T04:04:41.371Z,98894.01
2017-11-27T04:07:09.581Z,98894.71
2017-11-27T04:09:38.597Z,98904.11
2017-11-27T04:12:06.851Z,98899.88
2017-11-27T04:14:35.870Z,98905.61
2017-11-27T04:17:04.134Z,98907.50
2017-11-27T04:19:32.382Z,98900.12
2017-11-27T04:22:00.636Z,98895.58
2017-11-27T04:24:28.893Z,98897.42
2017-11-27T04:26:57.149Z,98895.52
2017-11-27T04:29:25.393Z,98896.75
2017-11-27T04:31:54.416Z,98895.70
2017-11-27T04:34:22.681Z,98891.00
2017-11-27T04:36:50.942Z,98901.23
2017-11-27T04:39:19.953Z,98889.28
2017-11-27T04:41:48.223Z,98869.23
2017-11-27T04:44:16.473Z,98882.02
2017-11-27T04:46:44.720Z,98886.73
2017-11-27T04:49:12.977Z,98886.03
2017-11-27T04:51:41.220Z,98893.36
2017-11-27T04:54:10.235Z,98893.79
2017-11-27T04:56:38.480Z,98891.33
2017-11-27T04:59:07.506Z,98889.37
2017-11-27T05:01:35.749Z,98884.20
2017-11-27T05:04:04.768Z,98878.47
2017-11-27T05:06:33.017Z,98878.27
2017-11-27T05:09:02.047Z,98866.06
2017-11-27T05:11:30.305Z,98869.84
2017-11-27T05:13:58.565Z,98866.30
2017-11-27T05:16:27.591Z,98882.75
2017-11-27T05:18:55.839Z,98869.84
2017-11-27T05:21:24.100Z,98877.83
2017-11-27T05:23:53.125Z,98871.77
2017-11-27T05:26:21.377Z,98871.98
2017-11-27T05:28:50.399Z,98861.84
2017-11-27T05:31:18.640Z,98873.48
2017-11-27T05:33:47.672Z,98880.22
2017-11-27T05:36:15.924Z,98870.59
2017-11-27T05:38:44.176Z,98866.38
2017-11-27T05:41:13.205Z,98865.27
2017-11-27T05:43:41.460Z,98870.59
2017-11-27T05:46:10.485Z,98861.45
2017-11-27T05:48:38.734Z,98857.09
2017-11-27T05:51:06.984Z,98862.69
2017-11-27T05:53:36.001Z,98849.53
2017-11-27T05:56:04.260Z,98848.83
2017-11-27T05:58:33.281Z,98850.20
2017-11-27T06:01:01.541Z,98845.75
2017-11-27T06:03:30.552Z,98845.13
2017-11-27T06:05:58.816Z,98844.66
2017-11-27T06:08:27.069Z,98843.41
2017-11-27T06:10:56.086Z,98843.83
2017-11-27T06:13:24.339Z,98837.42
2017-11-27T06:15:53.358Z,98839.72
2017-11-27T06:18:21.613Z,98839.23
2017-11-27T06:20:50.623Z,98831.45
2017-11-27T06:23:18.890Z,98833.11
2017-11-27T06:25:47.909Z,98840.24
2017-11-27T06:28:16.173Z,98836.53
2017-11-27T06:30:44.429Z,98832.43
2017-11-27T06:33:17.744Z,98828.69
2017-11-27T06:35:46.050Z,98838.17
2017-11-27T06:38:14.406Z,98838.10
2017-11-27T06:40:42.708Z,98838.96
2017-11-27T06:43:11.026Z,98843.34
2017-11-27T06:45:40.125Z,98836.22
2017-11-27T06:48:09.277Z,98841.52
2017-11-27T06:50:37.629Z,98842.97
2017-11-27T06:53:05.978Z,98840.65
2017-11-27T06:55:35.075Z,98842.14
2017-11-27T06:58:04.195Z,98842.14
2017-11-27T07:00:32.498Z,98839.20
2017-11-27T07:03:00.837Z,98833.86
2017-11-27T07:05:29.197Z,98833.73
2017-11-27T07:07:58.316Z,98835.09
2017-11-27T07:10:26.657Z,98836.78
2017-11-27T07:12:55.773Z,98834.05
2017-11-27T07:15:24.141Z,98832.78
2017-11-27T07:17:53.226Z,98826.44
2017-11-27T07:20:21.580Z,98830.38
2017-11-27T07:22:49.953Z,98829.79
2017-11-27T07:25:18.289Z,98814.09
2017-11-27T07:27:46.654Z,98830.02
2017-11-27T07:30:16.074Z,98838.59
2017-11-27T07:32:44.420Z,98843.06
2017-11-27T07:35:13.630Z,98826.80
2017-11-27T07:37:47.405Z,98825.55
2017-11-27T07:40:15.741Z,98826.06
2017-11-27T07:42:44.052Z,98816.11
2017-11-27T07:45:12.412Z,98824.94
2017-11-27T07:47:40.745Z,98819.83
2017-11-27T07:50:14.566Z,98799.80
2017-11-27T07:52:42.941Z,98806.22
2017-11-27T07:55:12.455Z,98819.66
2017-11-27T07:57:40.797Z,98814.13
2017-11-27T08:00:09.870Z,98812.28
2017-11-27T08:02:39.302Z,98808.59
2017-11-27T08:05:11.538Z,98805.61
2017-11-27T08:07:41.458Z,98817.17
2017-11-27T08:10:14.307Z,98813.57
2017-11-27T08:12:42.634Z,98813.14
2017-11-27T08:15:11.018Z,98818.02
2017-11-27T08:17:40.152Z,98823.03
2017-11-27T08:20:10.365Z,98809.81
2017-11-27T08:22:38.888Z,98804.87
2017-11-27T08:25:08.688Z,98799.33
2017-11-27T08:27:38.130Z,98808.03
2017-11-27T08:30:07.560Z,98809.67
2017-11-27T08:32:36.800Z,98804.28
2017-11-27T08:35:06.794Z,98817.05
2017-11-27T08:37:37.958Z,98778.30
2017-11-27T08:40:06.300Z,98792.25
2017-11-27T08:42:34.640Z,98798.54
2017-11-27T08:45:02.990Z,98792.53
2017-11-27T08:47:41.130Z,98790.29
2017-11-27T08:54:51.290Z,98785.57
2017-11-27T08:57:28.560Z,98789.14
2017-11-27T09:00:01.483Z,98782.56
2017-11-27T09:02:30.953Z,98783.73
2017-11-27T09:05:00.101Z,98783.47
2017-11-27T09:07:36.286Z,98775.77
2017-11-27T09:10:04.640Z,98771.32
2017-11-27T09:12:34.124Z,98767.42
2017-11-27T09:15:06.799Z,98756.88
2017-11-27T09:17:35.985Z,98757.50
2017-11-27T09:20:04.882Z,98770.12
2017-11-27T09:22:43.162Z,98766.82
2017-11-27T09:25:14.314Z,98760.60
2017-11-27T09:27:46.316Z,98754.04
2017-11-27T09:30:15.433Z,98750.99
2017-11-27T09:33:09.304Z,98755.84
2017-11-27T09:35:42.473Z,98747.12
2017-11-27T10:24:05.654Z,98665.91
2017-11-27T10:26:42.416Z,98652.78
2017-11-27T10:29:26.076Z,98654.86
2017-11-27T10:32:01.426Z,98624.59
2017-11-27T10:34:29.804Z,98644.62
2017-11-27T10:36:58.124Z,98639.87
2017-11-27T10:39:26.451Z,98637.88
2017-11-27T10:41:55.934Z,98633.10
2017-11-27T10:44:27.236Z,98626.77
2017-11-27T11:41:13.927Z,98511.62
2017-11-27T11:43:42.251Z,98498.82
2017-11-27T11:51:12.475Z,98486.50
2017-11-27T11:53:40.824Z,98476.06
2017-11-27T11:56:10.274Z,98477.77
2017-11-27T11:58:38.631Z,98483.87
2017-11-27T12:01:07.768Z,98475.34
2017-11-27T12:03:37.560Z,98463.69
2017-11-27T12:06:05.913Z,98467.10
2017-11-27T12:08:35.022Z,98454.23
2017-11-27T12:11:03.402Z,98455.59
2017-11-27T12:13:33.997Z,98442.27
2017-11-27T12:16:02.324Z,98438.47
2017-11-27T12:18:30.641Z,98441.24
2017-11-27T12:20:58.989Z,98425.23
2017-11-27T12:23:27.307Z,98436.73
2017-11-27T12:25:55.648Z,98417.03
2017-11-27T12:28:24.005Z,98409.92
2017-11-27T12:30:52.304Z,98408.95
2017-11-27T12:33:20.651Z,98406.71
2017-11-27T12:35:49.737Z,98410.00
2017-11-27T12:38:18.057Z,98404.14
2017-11-27T12:40:46.376Z,98389.72
2017-11-27T12:43:15.469Z,98382.80
2017-11-27T12:45:43.802Z,98388.16
2017-11-27T12:48:13.704Z,98367.64
2017-11-27T12:50:42.060Z,98378.44
2017-11-27T12:53:10.407Z,98364.98
2017-11-27T12:55:38.781Z,98366.42
2017-11-27T12:58:07.136Z,98358.28
2017-11-27T13:00:35.462Z,98338.19
2017-11-27T13:03:04.580Z,98354.06
2017-11-27T13:05:32.903Z,98350.76
2017-11-27T13:08:01.254Z,98341.94
2017-11-27T13:10:29.536Z,98334.34
2017-11-27T13:12:57.876Z,98336.58
2017-11-27T13:15:26.949Z,98328.50
2017-11-27T13:17:56.030Z,98335.48
2017-11-27T13:20:24.358Z,98330.31
2017-11-27T13:22:52.708Z,98319.79
2017-11-27T13:25:21.816Z,98326.65
2017-11-27T13:27:50.135Z,98292.42
2017-11-27T13:30:18.428Z,98298.69
2017-11-27T13:32:46.813Z,98299.59
2017-11-27T13:35:15.151Z,98313.19
2017-11-27T13:37:43.447Z,98294.22
2017-11-27T13:40:11.779Z,98280.23
2017-11-27T13:42:40.090Z,98279.95
2017-11-27T13:45:08.413Z,98250.57
2017-11-27T13:47:37.514Z,98285.45
2017-11-27T13:50:06.586Z,98269.95
2017-11-27T13:52:34.905Z,98248.47
2017-11-27T13:55:03.201Z,98276.94
2017-11-27T13:57:31.499Z,98253.47
2017-11-27T13:59:59.843Z,98246.27
2017-11-27T14:02:28.142Z,98251.12
2017-11-27T14:04:56.472Z,98264.23
2017-11-27T14:07:25.552Z,98252.83
2017-11-27T14:09:53.804Z,98251.19
2017-11-27T14:12:22.064Z,98236.47
2017-11-27T14:14:50.322Z,98234.48
2017-11-27T14:17:18.563Z,98238.29
2017-11-27T14:19:47.585Z,98229.94
2017-11-27T14:22:15.836Z,98213.81
2017-11-27T14:24:44.862Z,98228.46
2017-11-27T14:27:13.106Z,98209.92
2017-11-27T14:29:42.112Z,98211.98
2017-11-27T14:32:10.379Z,98219.53
2017-11-27T14:34:39.398Z,98194.02
2017-11-27T14:37:07.639Z,98187.80
2017-11-27T14:39:36.660Z,98209.53
2017-11-27T14:42:05.626Z,98194.11
2017-11-27T14:44:34.756Z,98191.69
2017-11-27T14:47:03.018Z,98183.68
2017-11-27T14:49:31.266Z,98188.33
2017-11-27T14:51:59.529Z,98179.51
2017-11-27T14:54:27.784Z,98172.63
2017-11-27T14:56:56.047Z,98162.91
2017-11-27T14:59:24.279Z,98148.59
2017-11-27T15:01:52.550Z,98140.11
2017-11-27T15:04:21.556Z,98139.50
2017-11-27T15:06:49.856Z,98143.88
2017-11-27T15:09:18.117Z,98130.25
2017-11-27T15:11:46.373Z,98131.07
2017-11-27T15:14:15.390Z,98124.39
2017-11-27T15:16:43.687Z,98105.74
2017-11-27T15:19:11.941Z,98110.06
2017-11-27T15:21:40.200Z,98113.11
2017-11-27T15:24:09.211Z,98123.23
2017-11-27T15:26:37.483Z,98080.91
2017-11-27T15:29:05.750Z,98101.95
2017-11-27T15:31:34.034Z,98085.21
2017-11-27T15:34:02.281Z,98112.66
2017-11-27T15:36:31.309Z,98083.41
2017-11-27T15:38:59.595Z,98077.91
2017-11-27T15:41:27.867Z,98079.27
2017-11-27T15:43:56.120Z,98076.47
2017-11-27T15:46:25.171Z,98081.73
2017-11-27T15:48:53.451Z,98060.62
2017-11-27T15:51:21.716Z,98064.11
2017-11-27T15:53:49.980Z,98042.52
2017-11-27T15:56:18.233Z,98067.84
2017-11-27T15:58:46.489Z,98060.65
2017-11-27T16:01:15.510Z,98011.02
2017-11-27T16:03:43.984Z,98046.67
2017-11-27T16:06:12.241Z,98011.83
2017-11-27T16:08:40.489Z,98037.10
2017-11-27T16:11:09.508Z,98032.97
2017-11-27T16:13:38.509Z,98032.89
2017-11-27T16:16:06.764Z,98029.17
2017-11-27T16:18:35.013Z,97986.68
2017-11-27T16:21:03.273Z,98029.55
2017-11-27T16:23:31.522Z,98027.10
2017-11-27T16:25:59.774Z,98025.38
2017-11-27T16:28:28.784Z,98024.13
2017-11-27T16:30:57.061Z,98007.75
2017-11-27T16:33:25.307Z,98024.06
2017-11-27T16:35:53.556Z,98021.84
2017-11-27T16:38:21.808Z,97991.91
2017-11-27T16:40:50.074Z,98003.33
2017-11-27T16:43:18.322Z,97988.93
2017-11-27T16:45:46.582Z,97974.64
2017-11-27T16:48:15.621Z,97973.09
2017-11-27T16:50:43.865Z,97995.26
2017-11-27T16:53:12.887Z,97996.09
2017-11-27T16:55:41.133Z,98021.09
2017-11-27T16:58:10.155Z,97993.70
2017-11-27T17:00:38.393Z,97991.99
2017-11-27T17:03:07.415Z,97964.23
2017-11-27T17:05:35.660Z,97984.17
2017-11-27T17:08:03.913Z,98073.73
2017-11-27T17:10:32.161Z,98138.47
2017-11-27T17:13:00.417Z,98142.58
2017-11-27T17:15:28.665Z,98173.28
2017-11-27T17:17:57.687Z,98182.57
2017-11-27T17:20:25.923Z,98184.28
2017-11-27T17:22:54.968Z,98190.58
2017-11-27T17:25:23.218Z,98185.11
2017-11-27T17:27:51.468Z,98183.02
2017-11-27T17:30:19.723Z,98189.76
2017-11-27T17:32:47.966Z,98198.69
2017-11-27T17:35:16.223Z,98190.61
2017-11-27T17:37:44.450Z,98201.63
2017-11-27T17:40:12.714Z,98188.06
2017-11-27T17:42:40.958Z,98177.92
2017-11-27T17:45:09.205Z,98179.16
2017-11-27T17:47:38.217Z,97806.08
2017-11-27T17:50:06.477Z,97849.84
2017-11-27T17:52:35.487Z,97874.16
2017-11-27T17:55:03.767Z,97913.37
2017-11-27T17:57:32.004Z,97991.93
2017-11-27T18:00:00.254Z,97992.35
2017-11-27T18:02:28.515Z,98019.28
2017-11-27T18:04:56.764Z,98008.28
2017-11-27T18:07:25.011Z,98024.61
2017-11-27T18:09:54.020Z,97999.36
2017-11-27T18:12:22.272Z,98025.78
2017-11-27T18:14:50.522Z,98028.77
2017-11-27T18:17:18.775Z,97992.86
2017-11-27T18:19:47.019Z,98024.11
2017-11-27T18:22:16.053Z,98019.87
2017-11-27T18:24:45.073Z,107991.63
2017-11-27T18:27:13.360Z,107991.63
2017-11-27T18:29:41.630Z,107991.63
2017-11-27T18:32:09.932Z,107991.63
2017-11-27T18:34:38.940Z,98102.63
2017-11-27T18:37:07.188Z,98100.97
2017-11-27T18:39:36.441Z,98110.23
2017-11-27T18:42:04.689Z,98136.38
2017-11-27T18:44:32.951Z,98180.02
2017-11-27T18:47:01.962Z,98433.14
2017-11-27T18:49:30.237Z,98567.97
2017-11-27T18:51:58.480Z,98356.49
2017-11-27T18:54:26.743Z,98262.93
2017-11-27T18:56:55.005Z,98218.02
2017-11-27T18:59:23.613Z,98205.30
2017-11-27T19:01:51.861Z,98200.75
2017-11-27T19:04:20.129Z,98162.80
2017-11-27T19:06:48.407Z,98130.38
2017-11-27T19:09:16.665Z,98145.62
2017-11-27T19:11:44.916Z,98136.30
2017-11-27T19:14:13.202Z,98122.02
2017-11-27T19:16:41.449Z,98158.56
2017-11-27T19:19:10.496Z,98412.27
2017-11-27T19:21:38.755Z,98740.80
2017-11-27T19:24:07.009Z,98388.98
2017-11-27T19:26:35.259Z,98312.56
2017-11-27T19:29:03.580Z,98263.50
2017-11-27T19:31:31.837Z,98223.53
2017-11-27T19:34:00.104Z,98192.38
2017-11-27T19:36:28.360Z,98168.77
2017-11-27T19:38:56.614Z,98158.25
2017-11-27T19:41:24.972Z,98180.58
2017-11-27T19:43:54.053Z,98289.16
2017-11-27T19:46:22.324Z,98538.28
2017-11-27T19:48:50.563Z,98795.81
2017-11-27T19:51:19.584Z,98559.42
2017-11-27T19:53:47.844Z,98437.36
2017-11-27T19:56:16.881Z,98370.45
2017-11-27T19:58:45.127Z,98323.80
2017-11-27T20:01:13.392Z,98308.03
2017-11-27T20:03:42.419Z,98270.76
2017-11-27T20:06:10.661Z,98256.50
2017-11-27T20:08:39.673Z,98238.77
2017-11-27T20:11:07.929Z,98216.52
2017-11-27T20:13:36.954Z,98218.21
2017-11-27T20:16:05.215Z,98232.11
2017-11-27T20:18:33.474Z,98199.80
2017-11-27T20:21:02.597Z,98170.77
2017-11-27T20:23:30.959Z,98162.38
2017-11-27T20:25:59.267Z,98162.52
2017-11-27T20:28:29.175Z,98149.02
2017-11-27T20:30:57.504Z,98146.05
2017-11-27T20:33:40.762Z,98124.88
2017-11-27T20:36:09.090Z,98101.87
2017-11-27T20:38:37.389Z,98097.73
2017-11-27T20:41:05.630Z,98111.59
2017-11-27T20:43:33.934Z,98108.89
2017-11-27T20:46:02.219Z,98180.90
2017-11-27T20:48:31.287Z,98555.92
2017-11-27T20:51:00.290Z,107991.63
2017-11-27T20:53:28.755Z,107991.63
2017-11-27T20:55:57.130Z,107991.63
2017-11-27T20:58:25.481Z,107991.63
2017-11-27T21:00:53.833Z,107991.63
2017-11-27T21:03:22.167Z,107991.63
2017-11-27T21:05:50.549Z,107991.63
2017-11-27T21:08:18.933Z,107991.63
2017-11-27T21:10:47.261Z,107991.63
2017-11-27T21:13:15.600Z,107991.63
2017-11-27T21:15:43.950Z,107991.63
2017-11-27T21:18:12.335Z,107991.63
2017-11-27T21:20:40.677Z,107991.63
2017-11-27T21:23:09.070Z,107991.63
2017-11-27T21:25:37.408Z,107991.63
2017-11-27T21:28:06.543Z,107991.63
2017-11-27T21:30:34.889Z,107991.63
2017-11-27T21:33:04.069Z,107991.63
2017-11-27T21:35:33.197Z,107991.63
2017-11-27T21:38:01.546Z,107991.63
2017-11-27T21:40:30.835Z,107991.63
2017-11-27T21:42:59.950Z,107991.63
2017-11-27T21:45:28.450Z,107991.63
2017-11-27T21:47:56.904Z,107991.63
2017-11-27T21:50:25.296Z,107991.63
2017-11-27T21:52:53.657Z,107991.63
2017-11-27T21:55:22.806Z,107991.63
2017-11-27T21:57:51.205Z,107991.63
2017-11-27T22:00:19.556Z,107991.63
2017-11-27T22:02:47.893Z,107991.63
2017-11-27T22:05:17.018Z,107991.63
2017-11-27T22:07:45.393Z,107991.63
2017-11-27T22:10:13.739Z,107991.63
2017-11-27T22:12:42.885Z,107991.63
2017-11-27T22:15:11.265Z,107991.63
2017-11-27T22:17:40.129Z,107991.63
2017-11-27T22:20:08.506Z,107991.63
2017-11-27T22:22:36.934Z,107991.63
2017-11-27T22:25:05.802Z,107991.63
2017-11-27T22:29:04.883Z,97992.63
2017-11-27T22:31:33.893Z,97980.41
2017-11-27T22:34:02.156Z,97967.73
2017-11-27T22:36:30.399Z,97973.09
2017-11-27T22:38:59.426Z,97991.29
2017-11-27T22:41:27.678Z,97987.17
2017-11-27T22:43:56.684Z,97976.80
2017-11-27T22:46:24.943Z,97975.41
2017-11-27T22:48:53.957Z,97942.14
2017-11-27T22:51:22.227Z,107991.63
2017-11-27T22:53:50.509Z,107991.63
2017-11-27T22:56:18.769Z,107991.63
2017-11-27T22:58:47.817Z,107991.63
2017-11-27T23:01:16.117Z,107991.63
2017-11-27T23:03:44.466Z,107991.63
2017-11-27T23:06:13.540Z,107991.63
2017-11-27T23:08:41.917Z,107991.63
2017-11-27T23:11:10.273Z,107991.63
2017-11-27T23:13:38.630Z,107991.63
2017-11-27T23:16:07.718Z,107991.63
2017-11-27T23:18:36.822Z,107991.63
2017-11-27T23:23:36.743Z,107991.63
2017-11-27T23:26:05.048Z,107991.63
2017-11-27T23:28:34.132Z,107991.63
2017-11-27T23:31:03.215Z,107991.63
2017-11-27T23:33:32.384Z,107991.63
2017-11-27T23:36:00.703Z,107991.63
2017-11-27T23:38:29.801Z,107991.63
2017-11-27T23:40:58.891Z,107991.63
2017-11-27T23:43:27.247Z,107991.63
2017-11-27T23:45:55.578Z,107991.63
2017-11-27T23:48:23.912Z,107991.63
2017-11-27T23:50:53.036Z,107991.63
2017-11-27T23:53:21.353Z,107991.63
2017-11-27T23:55:49.675Z,107991.63
2017-11-27T23:58:18.016Z,107991.63
